createdAt,value
2023-02-27T00:04:55.858Z,78.08
2023-02-27T00:09:59.983Z,78.26
2023-02-27T00:15:04.330Z,77.80
2023-02-27T00:20:12.855Z,77.88
2023-02-27T00:25:17.369Z,78.16
2023-02-27T00:30:21.701Z,78.27
2023-02-27T00:35:25.921Z,77.79
2023-02-27T00:40:30.389Z,77.51
2023-02-27T00:45:34.825Z,77.47
2023-02-27T00:50:39.785Z,77.41
2023-02-27T00:55:44.628Z,77.36
2023-02-27T01:00:48.885Z,77.74
2023-02-27T01:05:53.788Z,77.38
2023-02-27T01:10:58.159Z,77.61
2023-02-27T01:16:01.194Z,77.46
2023-02-27T01:21:06.358Z,77.17
2023-02-27T01:26:09.689Z,77.20
2023-02-27T01:31:15.728Z,76.99
2023-02-27T01:36:19.679Z,77.15
2023-02-27T01:41:25.746Z,77.16
2023-02-27T01:46:33.131Z,76.65
2023-02-27T01:51:42.621Z,76.61
2023-02-27T01:56:47.025Z,76.62
2023-02-27T02:01:52.493Z,76.02
2023-02-27T02:07:02.197Z,75.87
2023-02-27T02:12:07.358Z,75.82
2023-02-27T03:06:22.426Z,75.25
2023-02-27T03:11:31.376Z,74.85
2023-02-27T03:16:42.939Z,74.76
2023-02-27T03:21:52.818Z,74.42
2023-02-27T03:27:04.120Z,74.10
2023-02-27T03:32:18.848Z,73.68
2023-02-27T03:37:48.400Z,74.28
2023-02-27T03:48:44.903Z,74.14
2023-02-27T03:59:10.086Z,73.33
2023-02-27T04:04:20.288Z,73.59
2023-02-27T04:21:06.944Z,73.01
2023-02-27T04:36:58.558Z,72.12
2023-02-27T04:42:08.870Z,71.69
2023-02-27T04:47:15.406Z,70.94
2023-02-27T04:52:25.285Z,70.19
2023-02-27T04:57:38.546Z,70.09
2023-02-27T05:02:50.190Z,69.46
2023-02-27T05:08:00.959Z,69.55
2023-02-27T05:13:11.191Z,69.76
2023-02-27T05:18:19.038Z,68.15
2023-02-27T05:34:19.262Z,67.19
2023-02-27T05:39:26.398Z,67.64
2023-02-27T05:44:35.199Z,66.95
2023-02-27T05:49:50.831Z,66.05
2023-02-27T05:56:00.686Z,65.78
2023-02-27T06:01:23.388Z,66.02
2023-02-27T06:13:58.846Z,65.20
2023-02-27T06:19:20.804Z,65.61
2023-02-27T06:24:39.936Z,64.84
2023-02-27T06:29:54.585Z,64.29
2023-02-27T06:35:13.929Z,64.42
2023-02-27T06:40:19.471Z,64.10
2023-02-27T06:45:24.516Z,64.07
2023-02-27T06:50:28.883Z,63.69
2023-02-27T06:55:34.413Z,63.71
2023-02-27T07:00:40.402Z,63.50
2023-02-27T07:05:54.486Z,62.83
2023-02-27T07:10:57.606Z,62.77
2023-02-27T07:16:25.896Z,62.45
2023-02-27T07:22:27.097Z,62.02
2023-02-27T07:27:54.933Z,61.51
2023-02-27T07:33:31.323Z,61.22
2023-02-27T07:45:45.312Z,60.04
2023-02-27T07:51:25.132Z,59.66
2023-02-27T07:56:41.164Z,58.96
2023-02-27T08:01:44.137Z,58.96
2023-02-27T08:06:47.982Z,59.06
2023-02-27T08:11:50.796Z,58.06
2023-02-27T08:16:53.731Z,58.45
2023-02-27T08:21:59.559Z,58.31
2023-02-27T08:27:02.449Z,57.48
2023-02-27T08:32:05.973Z,57.60
2023-02-27T08:37:09.429Z,57.34
2023-02-27T08:42:12.251Z,56.78
2023-02-27T08:47:15.052Z,57.42
2023-02-27T08:52:17.945Z,56.19
2023-02-27T08:57:20.864Z,56.17
2023-02-27T09:02:27.157Z,56.82
2023-02-27T09:07:36.171Z,55.77
2023-02-27T09:12:39.549Z,56.19
2023-02-27T09:17:42.475Z,54.82
2023-02-27T09:22:51.854Z,55.33
2023-02-27T09:28:22.010Z,54.58
2023-02-27T09:33:29.164Z,54.66
2023-02-27T09:38:34.017Z,54.02
2023-02-27T09:43:46.012Z,53.75
2023-02-27T09:49:00.238Z,54.11
2023-02-27T09:54:05.053Z,54.21
2023-02-27T10:15:27.861Z,53.17
2023-02-27T10:20:34.969Z,52.63
2023-02-27T10:25:46.052Z,52.15
2023-02-27T10:30:55.440Z,52.05
2023-02-27T10:36:00.315Z,52.84
2023-02-27T10:41:07.933Z,52.92
2023-02-27T10:46:19.396Z,52.88
2023-02-27T10:56:39.578Z,53.20
2023-02-27T11:01:46.095Z,52.21
2023-02-27T11:06:54.096Z,52.75
2023-02-27T11:12:12.098Z,52.08
2023-02-27T11:17:27.029Z,51.52
2023-02-27T11:22:31.680Z,51.21
2023-02-27T11:34:36.841Z,51.60
2023-02-27T11:39:53.151Z,51.62
2023-02-27T11:45:01.522Z,51.56
2023-02-27T11:50:34.371Z,51.59
2023-02-27T11:55:39.099Z,51.68
2023-02-27T12:00:49.599Z,52.21
2023-02-27T12:05:57.665Z,52.24
2023-02-27T12:11:14.774Z,52.35
2023-02-27T12:21:40.764Z,53.17
2023-02-27T12:26:46.978Z,52.90
2023-02-27T12:32:00.782Z,53.19
2023-02-27T12:37:10.620Z,53.74
2023-02-27T12:42:39.463Z,53.93
2023-02-27T13:04:34.193Z,54.64
2023-02-27T13:10:01.374Z,55.45
2023-02-27T13:25:38.999Z,56.34
2023-02-27T13:30:49.373Z,55.04
2023-02-27T13:46:38.143Z,56.81
2023-02-27T14:07:26.245Z,59.13
2023-02-27T14:12:44.024Z,59.16
2023-02-27T14:17:50.971Z,58.98
2023-02-27T14:33:50.667Z,59.57
2023-02-27T14:38:58.789Z,59.89
2023-02-27T14:44:02.183Z,59.54
2023-02-27T14:54:33.268Z,59.97
2023-02-27T14:59:46.240Z,59.59
2023-02-27T15:04:56.364Z,60.37
2023-02-27T15:10:04.607Z,60.95
2023-02-27T15:15:10.705Z,60.28
2023-02-27T15:25:39.326Z,61.34
2023-02-27T15:30:42.467Z,60.93
2023-02-27T15:35:46.890Z,61.37
2023-02-27T15:40:50.054Z,61.72
2023-02-27T15:45:53.597Z,61.49
2023-02-27T15:51:01.226Z,61.57
2023-02-27T15:56:09.934Z,61.51
2023-02-27T16:01:19.528Z,61.22
2023-02-27T16:06:27.817Z,61.38
2023-02-27T16:11:34.894Z,61.28
2023-02-27T16:16:39.088Z,61.71
2023-02-27T16:22:04.818Z,61.44
2023-02-27T16:27:16.327Z,62.32
2023-02-27T16:32:29.755Z,61.86
2023-02-27T16:37:37.606Z,62.18
2023-02-27T16:42:41.155Z,62.42
2023-02-27T16:47:44.377Z,62.82
2023-02-27T16:52:47.186Z,62.64
2023-02-27T16:57:50.055Z,63.04
2023-02-27T17:02:52.936Z,62.66
2023-02-27T17:07:55.952Z,63.00
2023-02-27T17:12:59.807Z,63.13
2023-02-27T17:18:02.894Z,63.53
2023-02-27T17:23:05.694Z,63.52
2023-02-27T17:28:09.075Z,63.25
2023-02-27T17:33:11.974Z,63.84
2023-02-27T17:38:17.782Z,64.00
2023-02-27T17:43:20.829Z,64.60
2023-02-27T17:48:24.001Z,64.93
2023-02-27T17:53:26.709Z,65.13
2023-02-27T17:58:29.846Z,65.57
2023-02-27T18:03:33.521Z,65.75
2023-02-27T18:08:36.731Z,66.22
2023-02-27T18:13:40.504Z,65.59
2023-02-27T18:18:44.078Z,65.82
2023-02-27T18:23:50.967Z,66.00
2023-02-27T18:28:54.314Z,66.01
2023-02-27T18:34:00.149Z,65.85
2023-02-27T18:39:05.278Z,65.84
2023-02-27T18:44:09.279Z,66.83
2023-02-27T18:49:12.188Z,66.31
2023-02-27T18:54:15.392Z,66.33
2023-02-27T18:59:18.597Z,66.24
2023-02-27T19:04:21.563Z,67.10
2023-02-27T19:09:30.890Z,67.69
2023-02-27T19:14:37.084Z,67.31
2023-02-27T19:19:40.051Z,67.72
2023-02-27T19:24:43.027Z,67.73
2023-02-27T19:29:45.915Z,68.38
2023-02-27T19:34:49.002Z,68.84
2023-02-27T19:39:52.963Z,68.46
2023-02-27T19:44:56.227Z,68.68
2023-02-27T19:49:59.230Z,69.44
2023-02-27T19:55:03.863Z,69.59
2023-02-27T20:00:08.674Z,69.18
2023-02-27T20:05:19.453Z,69.07
2023-02-27T20:10:22.287Z,69.53
2023-02-27T20:15:25.433Z,70.14
2023-02-27T20:20:29.660Z,70.47
2023-02-27T20:25:33.929Z,72.19
2023-02-27T20:30:36.804Z,70.51
2023-02-27T20:35:40.390Z,71.00
2023-02-27T20:40:43.324Z,71.18
2023-02-27T20:45:46.675Z,71.96
2023-02-27T20:50:49.503Z,71.67
2023-02-27T20:55:52.369Z,70.86
2023-02-27T21:00:55.339Z,70.31
2023-02-27T21:06:00.027Z,70.47
2023-02-27T21:11:19.728Z,69.99
2023-02-27T21:16:23.115Z,70.19
2023-02-27T21:21:30.988Z,69.44
2023-02-27T21:26:38.348Z,69.45
2023-02-27T21:31:45.274Z,70.50
2023-02-27T21:36:50.109Z,69.92
2023-02-27T21:41:54.088Z,70.22
2023-02-27T21:46:57.029Z,70.36
2023-02-27T21:51:59.890Z,70.52
2023-02-27T21:57:03.513Z,70.00
2023-02-27T22:02:07.549Z,70.09
2023-02-27T22:07:11.502Z,69.34
2023-02-27T22:12:16.166Z,69.86
2023-02-27T22:17:19.102Z,70.17
2023-02-27T22:22:22.123Z,71.01
2023-02-27T22:27:25.097Z,70.45
2023-02-27T22:32:28.907Z,70.07
2023-02-27T22:37:31.872Z,71.04
2023-02-27T22:42:34.759Z,70.44
2023-02-27T22:47:37.879Z,71.67
2023-02-27T22:52:40.821Z,71.94
2023-02-27T22:57:43.701Z,73.31
2023-02-27T23:02:46.828Z,73.11
2023-02-27T23:07:49.683Z,73.00
2023-02-27T23:12:52.717Z,73.11
2023-02-27T23:17:58.514Z,72.85
2023-02-27T23:23:01.729Z,73.88
2023-02-27T23:28:06.651Z,75.83
2023-02-27T23:33:09.511Z,74.28
2023-02-27T23:38:12.461Z,74.07
2023-02-27T23:43:15.844Z,73.36
2023-02-27T23:48:22.003Z,74.22
2023-02-27T23:53:24.816Z,75.44
2023-02-27T23:58:27.867Z,76.08
